sensor_id;sensor_type;location;lat;lon;timestamp;P1;durP1;ratioP1;P2;durP2;ratioP2
27365;SDS011;14837;57.148;-2.144;2023-04-01T00:02:14;8.93;;;2.05;;
27365;SDS011;14837;57.148;-2.144;2023-04-01T00:04:40;9.20;;;2.33;;
27365;SDS011;14837;57.148;-2.144;2023-04-01T00:07:07;4.97;;;1.85;;
27365;SDS011;14837;57.148;-2.144;2023-04-01T00:09:34;4.38;;;1.92;;
27365;SDS011;14837;57.148;-2.144;2023-04-01T00:12:01;5.50;;;1.83;;
27365;SDS011;14837;57.148;-2.144;2023-04-01T00:14:27;16.75;;;3.13;;
27365;SDS011;14837;57.148;-2.144;2023-04-01T00:16:55;9.10;;;2.25;;
27365;SDS011;14837;57.148;-2.144;2023-04-01T00:19:22;5.30;;;1.55;;
27365;SDS011;14837;57.148;-2.144;2023-04-01T00:21:48;4.45;;;2.00;;
27365;SDS011;14837;57.148;-2.144;2023-04-01T00:24:15;6.75;;;1.67;;
27365;SDS011;14837;57.148;-2.144;2023-04-01T00:26:41;8.23;;;2.42;;
27365;SDS011;14837;57.148;-2.144;2023-04-01T00:29:08;6.00;;;1.65;;
27365;SDS011;14837;57.148;-2.144;2023-04-01T00:31:35;4.97;;;2.15;;
27365;SDS011;14837;57.148;-2.144;2023-04-01T00:34:01;7.22;;;1.40;;
27365;SDS011;14837;57.148;-2.144;2023-04-01T00:36:28;7.50;;;1.88;;
27365;SDS011;14837;57.148;-2.144;2023-04-01T00:38:55;5.60;;;1.70;;
27365;SDS011;14837;57.148;-2.144;2023-04-01T00:41:21;8.20;;;1.75;;
27365;SDS011;14837;57.148;-2.144;2023-04-01T00:43:49;7.18;;;2.63;;
27365;SDS011;14837;57.148;-2.144;2023-04-01T00:46:15;5.18;;;1.85;;
27365;SDS011;14837;57.148;-2.144;2023-04-01T00:48:47;6.43;;;2.00;;
27365;SDS011;14837;57.148;-2.144;2023-04-01T00:51:19;11.20;;;2.33;;
27365;SDS011;14837;57.148;-2.144;2023-04-01T00:53:47;9.70;;;2.25;;
27365;SDS011;14837;57.148;-2.144;2023-04-01T00:56:18;8.23;;;2.63;;
27365;SDS011;14837;57.148;-2.144;2023-04-01T00:58:51;7.87;;;2.10;;
27365;SDS011;14837;57.148;-2.144;2023-04-01T01:01:21;4.63;;;1.65;;
27365;SDS011;14837;57.148;-2.144;2023-04-01T01:03:48;13.85;;;2.40;;
27365;SDS011;14837;57.148;-2.144;2023-04-01T01:06:21;7.35;;;2.25;;
27365;SDS011;14837;57.148;-2.144;2023-04-01T01:11:40;10.75;;;2.38;;
27365;SDS011;14837;57.148;-2.144;2023-04-01T01:14:17;7.35;;;2.60;;
27365;SDS011;14837;57.148;-2.144;2023-04-01T01:16:46;10.25;;;3.42;;
27365;SDS011;14837;57.148;-2.144;2023-04-01T01:19:31;12.38;;;3.53;;
27365;SDS011;14837;57.148;-2.144;2023-04-01T01:27:23;4.95;;;2.25;;
27365;SDS011;14837;57.148;-2.144;2023-04-01T01:37:34;5.78;;;2.20;;
27365;SDS011;14837;57.148;-2.144;2023-04-01T01:40:02;16.88;;;3.45;;
27365;SDS011;14837;57.148;-2.144;2023-04-01T01:42:29;8.02;;;2.33;;
27365;SDS011;14837;57.148;-2.144;2023-04-01T01:44:57;9.35;;;2.15;;
27365;SDS011;14837;57.148;-2.144;2023-04-01T01:47:25;10.60;;;2.38;;
27365;SDS011;14837;57.148;-2.144;2023-04-01T01:49:53;7.80;;;1.98;;
27365;SDS011;14837;57.148;-2.144;2023-04-01T01:52:21;8.50;;;2.30;;
27365;SDS011;14837;57.148;-2.144;2023-04-01T01:54:52;10.02;;;3.42;;
27365;SDS011;14837;57.148;-2.144;2023-04-01T01:57:21;9.57;;;2.17;;
27365;SDS011;14837;57.148;-2.144;2023-04-01T01:59:49;8.35;;;3.28;;
27365;SDS011;14837;57.148;-2.144;2023-04-01T02:02:18;9.18;;;2.83;;
27365;SDS011;14837;57.148;-2.144;2023-04-01T02:04:45;10.95;;;2.88;;
27365;SDS011;14837;57.148;-2.144;2023-04-01T02:07:14;12.85;;;3.67;;
27365;SDS011;14837;57.148;-2.144;2023-04-01T02:09:42;12.13;;;2.85;;
27365;SDS011;14837;57.148;-2.144;2023-04-01T02:12:09;8.18;;;3.75;;
27365;SDS011;14837;57.148;-2.144;2023-04-01T02:14:39;10.18;;;2.95;;
27365;SDS011;14837;57.148;-2.144;2023-04-01T02:17:10;5.28;;;2.15;;
27365;SDS011;14837;57.148;-2.144;2023-04-01T02:19:39;11.65;;;4.03;;
27365;SDS011;14837;57.148;-2.144;2023-04-01T02:22:09;8.10;;;3.20;;
27365;SDS011;14837;57.148;-2.144;2023-04-01T02:24:36;7.13;;;2.65;;
27365;SDS011;14837;57.148;-2.144;2023-04-01T02:27:04;10.10;;;2.80;;
27365;SDS011;14837;57.148;-2.144;2023-04-01T02:29:30;13.10;;;3.50;;
27365;SDS011;14837;57.148;-2.144;2023-04-01T02:31:57;9.82;;;2.88;;
27365;SDS011;14837;57.148;-2.144;2023-04-01T02:34:24;7.55;;;3.20;;
27365;SDS011;14837;57.148;-2.144;2023-04-01T02:36:51;6.97;;;2.75;;
27365;SDS011;14837;57.148;-2.144;2023-04-01T02:39:18;6.88;;;2.60;;
27365;SDS011;14837;57.148;-2.144;2023-04-01T02:41:45;10.52;;;2.97;;
27365;SDS011;14837;57.148;-2.144;2023-04-01T02:44:12;8.13;;;3.38;;
27365;SDS011;14837;57.148;-2.144;2023-04-01T02:46:39;7.15;;;2.20;;
27365;SDS011;14837;57.148;-2.144;2023-04-01T02:49:05;12.68;;;3.97;;
27365;SDS011;14837;57.148;-2.144;2023-04-01T02:51:32;10.02;;;2.58;;
27365;SDS011;14837;57.148;-2.144;2023-04-01T02:53:59;7.93;;;2.17;;
27365;SDS011;14837;57.148;-2.144;2023-04-01T02:56:25;9.73;;;3.08;;
27365;SDS011;14837;57.148;-2.144;2023-04-01T02:58:52;9.35;;;2.97;;
27365;SDS011;14837;57.148;-2.144;2023-04-01T03:01:19;6.85;;;2.60;;
27365;SDS011;14837;57.148;-2.144;2023-04-01T03:03:46;12.27;;;4.38;;
27365;SDS011;14837;57.148;-2.144;2023-04-01T03:06:14;6.95;;;2.70;;
27365;SDS011;14837;57.148;-2.144;2023-04-01T03:08:41;14.52;;;3.50;;
27365;SDS011;14837;57.148;-2.144;2023-04-01T03:11:08;6.72;;;2.15;;
27365;SDS011;14837;57.148;-2.144;2023-04-01T03:13:35;6.10;;;2.50;;
27365;SDS011;14837;57.148;-2.144;2023-04-01T03:16:01;12.40;;;3.10;;
27365;SDS011;14837;57.148;-2.144;2023-04-01T03:18:28;11.35;;;2.80;;
27365;SDS011;14837;57.148;-2.144;2023-04-01T03:20:55;6.10;;;2.13;;
27365;SDS011;14837;57.148;-2.144;2023-04-01T03:23:21;4.03;;;1.70;;
27365;SDS011;14837;57.148;-2.144;2023-04-01T03:25:48;6.50;;;2.05;;
27365;SDS011;14837;57.148;-2.144;2023-04-01T03:28:14;6.88;;;2.58;;
27365;SDS011;14837;57.148;-2.144;2023-04-01T03:30:41;11.75;;;2.53;;
27365;SDS011;14837;57.148;-2.144;2023-04-01T03:33:07;11.98;;;3.08;;
27365;SDS011;14837;57.148;-2.144;2023-04-01T03:35:34;8.95;;;2.25;;
27365;SDS011;14837;57.148;-2.144;2023-04-01T03:38:02;5.40;;;2.17;;
27365;SDS011;14837;57.148;-2.144;2023-04-01T03:40:28;8.52;;;3.38;;
27365;SDS011;14837;57.148;-2.144;2023-04-01T03:42:55;5.13;;;2.33;;
27365;SDS011;14837;57.148;-2.144;2023-04-01T03:45:22;7.55;;;2.50;;
27365;SDS011;14837;57.148;-2.144;2023-04-01T03:47:49;11.35;;;2.38;;
27365;SDS011;14837;57.148;-2.144;2023-04-01T03:50:15;12.52;;;2.42;;
27365;SDS011;14837;57.148;-2.144;2023-04-01T03:52:42;21.20;;;3.20;;
27365;SDS011;14837;57.148;-2.144;2023-04-01T03:55:08;11.02;;;2.85;;
27365;SDS011;14837;57.148;-2.144;2023-04-01T03:57:35;9.05;;;2.65;;
27365;SDS011;14837;57.148;-2.144;2023-04-01T04:00:01;8.20;;;3.28;;
27365;SDS011;14837;57.148;-2.144;2023-04-01T04:02:28;8.48;;;2.63;;
27365;SDS011;14837;57.148;-2.144;2023-04-01T04:04:54;6.65;;;2.67;;
27365;SDS011;14837;57.148;-2.144;2023-04-01T04:07:21;11.95;;;2.80;;
27365;SDS011;14837;57.148;-2.144;2023-04-01T04:09:47;11.05;;;2.53;;
27365;SDS011;14837;57.148;-2.144;2023-04-01T04:12:14;11.60;;;3.25;;
27365;SDS011;14837;57.148;-2.144;2023-04-01T04:14:40;11.57;;;2.72;;
27365;SDS011;14837;57.148;-2.144;2023-04-01T04:17:09;8.25;;;2.50;;
27365;SDS011;14837;57.148;-2.144;2023-04-01T04:19:39;7.57;;;3.35;;
27365;SDS011;14837;57.148;-2.144;2023-04-01T04:22:06;11.00;;;2.28;;
27365;SDS011;14837;57.148;-2.144;2023-04-01T04:24:33;6.85;;;2.95;;
27365;SDS011;14837;57.148;-2.144;2023-04-01T04:27:00;8.65;;;2.50;;
27365;SDS011;14837;57.148;-2.144;2023-04-01T04:29:26;8.05;;;2.38;;
27365;SDS011;14837;57.148;-2.144;2023-04-01T04:31:53;12.35;;;3.20;;
27365;SDS011;14837;57.148;-2.144;2023-04-01T04:34:20;8.48;;;4.00;;
27365;SDS011;14837;57.148;-2.144;2023-04-01T04:36:48;7.97;;;2.97;;
27365;SDS011;14837;57.148;-2.144;2023-04-01T04:39:15;8.90;;;2.72;;
27365;SDS011;14837;57.148;-2.144;2023-04-01T04:41:41;10.77;;;3.30;;
27365;SDS011;14837;57.148;-2.144;2023-04-01T04:44:08;9.32;;;2.92;;
27365;SDS011;14837;57.148;-2.144;2023-04-01T04:46:34;11.38;;;3.00;;
27365;SDS011;14837;57.148;-2.144;2023-04-01T04:49:02;8.82;;;2.63;;
27365;SDS011;14837;57.148;-2.144;2023-04-01T04:51:28;12.27;;;2.50;;
27365;SDS011;14837;57.148;-2.144;2023-04-01T04:53:55;7.55;;;2.38;;
27365;SDS011;14837;57.148;-2.144;2023-04-01T04:56:21;8.77;;;2.08;;
27365;SDS011;14837;57.148;-2.144;2023-04-01T04:58:49;13.27;;;3.25;;
27365;SDS011;14837;57.148;-2.144;2023-04-01T05:01:16;11.75;;;2.25;;
27365;SDS011;14837;57.148;-2.144;2023-04-01T05:03:43;10.05;;;2.33;;
27365;SDS011;14837;57.148;-2.144;2023-04-01T05:06:11;10.70;;;2.78;;
27365;SDS011;14837;57.148;-2.144;2023-04-01T05:08:37;11.90;;;3.15;;
27365;SDS011;14837;57.148;-2.144;2023-04-01T05:11:12;15.38;;;3.15;;
27365;SDS011;14837;57.148;-2.144;2023-04-01T05:16:09;5.80;;;2.03;;
27365;SDS011;14837;57.148;-2.144;2023-04-01T05:18:36;20.33;;;3.72;;
27365;SDS011;14837;57.148;-2.144;2023-04-01T05:21:02;9.10;;;3.08;;
27365;SDS011;14837;57.148;-2.144;2023-04-01T05:23:32;10.55;;;3.97;;
27365;SDS011;14837;57.148;-2.144;2023-04-01T05:26:02;13.20;;;3.28;;
27365;SDS011;14837;57.148;-2.144;2023-04-01T05:28:29;16.55;;;4.07;;
27365;SDS011;14837;57.148;-2.144;2023-04-01T05:30:57;11.32;;;3.10;;
27365;SDS011;14837;57.148;-2.144;2023-04-01T05:33:24;13.27;;;3.47;;
27365;SDS011;14837;57.148;-2.144;2023-04-01T05:35:50;20.52;;;4.47;;
27365;SDS011;14837;57.148;-2.144;2023-04-01T05:38:17;18.38;;;3.95;;
27365;SDS011;14837;57.148;-2.144;2023-04-01T05:40:43;16.05;;;4.28;;
27365;SDS011;14837;57.148;-2.144;2023-04-01T05:43:10;12.95;;;3.20;;
27365;SDS011;14837;57.148;-2.144;2023-04-01T05:45:37;14.35;;;3.17;;
27365;SDS011;14837;57.148;-2.144;2023-04-01T05:48:03;14.45;;;3.47;;
27365;SDS011;14837;57.148;-2.144;2023-04-01T05:50:30;10.48;;;3.10;;
27365;SDS011;14837;57.148;-2.144;2023-04-01T05:52:57;13.65;;;4.18;;
27365;SDS011;14837;57.148;-2.144;2023-04-01T05:55:23;13.02;;;4.15;;
27365;SDS011;14837;57.148;-2.144;2023-04-01T05:57:50;8.00;;;3.42;;
27365;SDS011;14837;57.148;-2.144;2023-04-01T06:00:16;10.95;;;3.72;;
27365;SDS011;14837;57.148;-2.144;2023-04-01T06:02:43;13.73;;;3.75;;
27365;SDS011;14837;57.148;-2.144;2023-04-01T06:07:36;14.73;;;3.53;;
27365;SDS011;14837;57.148;-2.144;2023-04-01T06:10:08;13.70;;;3.97;;
27365;SDS011;14837;57.148;-2.144;2023-04-01T06:12:48;8.45;;;4.25;;
27365;SDS011;14837;57.148;-2.144;2023-04-01T06:28:20;11.00;;;3.42;;
27365;SDS011;14837;57.148;-2.144;2023-04-01T06:31:18;14.17;;;4.77;;
27365;SDS011;14837;57.148;-2.144;2023-04-01T06:36:17;17.35;;;6.00;;
27365;SDS011;14837;57.148;-2.144;2023-04-01T06:54:21;16.98;;;4.45;;
27365;SDS011;14837;57.148;-2.144;2023-04-01T06:56:52;26.38;;;7.35;;
27365;SDS011;14837;57.148;-2.144;2023-04-01T06:59:31;26.42;;;4.57;;
27365;SDS011;14837;57.148;-2.144;2023-04-01T07:02:01;12.05;;;3.90;;
27365;SDS011;14837;57.148;-2.144;2023-04-01T07:06:58;19.90;;;4.63;;
27365;SDS011;14837;57.148;-2.144;2023-04-01T07:09:27;14.02;;;3.75;;
27365;SDS011;14837;57.148;-2.144;2023-04-01T07:11:59;18.35;;;4.25;;
27365;SDS011;14837;57.148;-2.144;2023-04-01T07:14:30;14.43;;;4.20;;
27365;SDS011;14837;57.148;-2.144;2023-04-01T07:22:20;15.38;;;5.15;;
27365;SDS011;14837;57.148;-2.144;2023-04-01T07:24:49;17.90;;;4.28;;
27365;SDS011;14837;57.148;-2.144;2023-04-01T07:27:17;8.25;;;3.08;;
27365;SDS011;14837;57.148;-2.144;2023-04-01T07:29:43;17.10;;;4.57;;
27365;SDS011;14837;57.148;-2.144;2023-04-01T07:42:25;12.30;;;4.07;;
27365;SDS011;14837;57.148;-2.144;2023-04-01T07:50:22;14.80;;;4.30;;
27365;SDS011;14837;57.148;-2.144;2023-04-01T07:57:53;25.23;;;5.50;;
27365;SDS011;14837;57.148;-2.144;2023-04-01T08:10:23;18.50;;;3.75;;
27365;SDS011;14837;57.148;-2.144;2023-04-01T08:15:55;18.65;;;4.90;;
27365;SDS011;14837;57.148;-2.144;2023-04-01T08:20:59;19.48;;;4.47;;
27365;SDS011;14837;57.148;-2.144;2023-04-01T08:28:41;20.52;;;5.47;;
27365;SDS011;14837;57.148;-2.144;2023-04-01T08:33:37;19.70;;;5.90;;
27365;SDS011;14837;57.148;-2.144;2023-04-01T08:38:42;22.98;;;5.82;;
27365;SDS011;14837;57.148;-2.144;2023-04-01T08:41:13;21.17;;;3.90;;
27365;SDS011;14837;57.148;-2.144;2023-04-01T08:46:32;22.38;;;5.07;;
27365;SDS011;14837;57.148;-2.144;2023-04-01T08:54:34;17.35;;;5.65;;
27365;SDS011;14837;57.148;-2.144;2023-04-01T08:57:06;13.32;;;4.72;;
27365;SDS011;14837;57.148;-2.144;2023-04-01T09:02:42;26.15;;;5.75;;
27365;SDS011;14837;57.148;-2.144;2023-04-01T09:07:56;27.73;;;5.55;;
27365;SDS011;14837;57.148;-2.144;2023-04-01T09:13:18;17.92;;;4.60;;
27365;SDS011;14837;57.148;-2.144;2023-04-01T09:26:42;21.33;;;5.20;;
27365;SDS011;14837;57.148;-2.144;2023-04-01T10:14:25;18.08;;;5.53;;
27365;SDS011;14837;57.148;-2.144;2023-04-01T10:17:00;16.90;;;6.15;;
27365;SDS011;14837;57.148;-2.144;2023-04-01T10:56:51;18.30;;;3.75;;
27365;SDS011;14837;57.148;-2.144;2023-04-01T11:28:05;13.82;;;3.85;;
27365;SDS011;14837;57.148;-2.144;2023-04-01T11:30:49;10.38;;;3.40;;
27365;SDS011;14837;57.148;-2.144;2023-04-01T11:33:26;13.35;;;4.25;;
27365;SDS011;14837;57.148;-2.144;2023-04-01T12:01:51;16.27;;;4.63;;
27365;SDS011;14837;57.148;-2.144;2023-04-01T12:09:47;18.30;;;4.28;;
27365;SDS011;14837;57.148;-2.144;2023-04-01T12:35:18;13.35;;;4.68;;
27365;SDS011;14837;57.148;-2.144;2023-04-01T13:09:26;18.88;;;4.35;;
27365;SDS011;14837;57.148;-2.144;2023-04-01T13:22:48;12.02;;;3.42;;
27365;SDS011;14837;57.148;-2.144;2023-04-01T13:28:00;11.23;;;5.55;;
27365;SDS011;14837;57.148;-2.144;2023-04-01T13:30:32;21.80;;;4.15;;
27365;SDS011;14837;57.148;-2.144;2023-04-01T13:35:48;13.18;;;4.50;;
27365;SDS011;14837;57.148;-2.144;2023-04-01T13:54:22;14.75;;;3.67;;
27365;SDS011;14837;57.148;-2.144;2023-04-01T14:02:18;19.88;;;7.40;;
27365;SDS011;14837;57.148;-2.144;2023-04-01T14:04:53;19.00;;;4.40;;
27365;SDS011;14837;57.148;-2.144;2023-04-01T14:20:02;12.18;;;4.63;;
27365;SDS011;14837;57.148;-2.144;2023-04-01T14:22:33;13.85;;;3.50;;
27365;SDS011;14837;57.148;-2.144;2023-04-01T14:30:41;14.48;;;4.15;;
27365;SDS011;14837;57.148;-2.144;2023-04-01T14:33:46;20.33;;;4.38;;
27365;SDS011;14837;57.148;-2.144;2023-04-01T14:36:08;18.50;;;5.13;;
27365;SDS011;14837;57.148;-2.144;2023-04-01T14:38:42;21.95;;;5.43;;
27365;SDS011;14837;57.148;-2.144;2023-04-01T14:49:13;18.65;;;4.75;;
27365;SDS011;14837;57.148;-2.144;2023-04-01T14:51:40;18.92;;;4.93;;
27365;SDS011;14837;57.148;-2.144;2023-04-01T15:14:59;17.67;;;3.97;;
27365;SDS011;14837;57.148;-2.144;2023-04-01T15:17:43;21.85;;;4.57;;
27365;SDS011;14837;57.148;-2.144;2023-04-01T15:48:40;24.20;;;6.22;;
27365;SDS011;14837;57.148;-2.144;2023-04-01T15:51:54;23.85;;;7.18;;
27365;SDS011;14837;57.148;-2.144;2023-04-01T16:01:59;19.77;;;5.43;;
27365;SDS011;14837;57.148;-2.144;2023-04-01T16:14:54;15.77;;;5.10;;
27365;SDS011;14837;57.148;-2.144;2023-04-01T16:22:39;21.77;;;7.32;;
27365;SDS011;14837;57.148;-2.144;2023-04-01T16:30:37;30.08;;;9.43;;
27365;SDS011;14837;57.148;-2.144;2023-04-01T16:41:05;24.15;;;8.45;;
27365;SDS011;14837;57.148;-2.144;2023-04-01T16:51:23;20.73;;;7.55;;
27365;SDS011;14837;57.148;-2.144;2023-04-01T16:54:00;19.42;;;8.30;;
27365;SDS011;14837;57.148;-2.144;2023-04-01T16:56:36;23.23;;;7.40;;
27365;SDS011;14837;57.148;-2.144;2023-04-01T17:04:20;32.22;;;8.00;;
27365;SDS011;14837;57.148;-2.144;2023-04-01T17:06:51;28.17;;;8.05;;
27365;SDS011;14837;57.148;-2.144;2023-04-01T17:09:22;31.33;;;8.48;;
27365;SDS011;14837;57.148;-2.144;2023-04-01T17:16:52;22.50;;;8.35;;
27365;SDS011;14837;57.148;-2.144;2023-04-01T17:34:56;19.67;;;6.95;;
27365;SDS011;14837;57.148;-2.144;2023-04-01T17:37:50;28.55;;;6.80;;
27365;SDS011;14837;57.148;-2.144;2023-04-01T17:46:28;17.20;;;5.22;;
27365;SDS011;14837;57.148;-2.144;2023-04-01T17:49:35;18.95;;;5.50;;
27365;SDS011;14837;57.148;-2.144;2023-04-01T17:54:29;20.60;;;5.35;;
27365;SDS011;14837;57.148;-2.144;2023-04-01T17:57:14;16.00;;;5.13;;
27365;SDS011;14837;57.148;-2.144;2023-04-01T18:07:52;24.13;;;6.28;;
27365;SDS011;14837;57.148;-2.144;2023-04-01T18:10:39;17.90;;;5.53;;
27365;SDS011;14837;57.148;-2.144;2023-04-01T18:16:17;25.17;;;6.88;;
27365;SDS011;14837;57.148;-2.144;2023-04-01T18:23:54;22.73;;;5.78;;
27365;SDS011;14837;57.148;-2.144;2023-04-01T18:26:29;18.48;;;6.03;;
27365;SDS011;14837;57.148;-2.144;2023-04-01T18:31:42;19.50;;;6.32;;
27365;SDS011;14837;57.148;-2.144;2023-04-01T18:36:59;17.25;;;5.72;;
27365;SDS011;14837;57.148;-2.144;2023-04-01T18:39:43;21.10;;;5.22;;
27365;SDS011;14837;57.148;-2.144;2023-04-01T18:44:54;19.77;;;5.93;;
27365;SDS011;14837;57.148;-2.144;2023-04-01T18:49:59;19.77;;;5.25;;
27365;SDS011;14837;57.148;-2.144;2023-04-01T18:52:33;19.42;;;5.47;;
27365;SDS011;14837;57.148;-2.144;2023-04-01T18:57:27;19.98;;;6.95;;
27365;SDS011;14837;57.148;-2.144;2023-04-01T19:00:08;24.73;;;6.70;;
27365;SDS011;14837;57.148;-2.144;2023-04-01T19:02:48;16.85;;;4.80;;
27365;SDS011;14837;57.148;-2.144;2023-04-01T19:05:18;30.05;;;14.48;;
27365;SDS011;14837;57.148;-2.144;2023-04-01T19:07:56;46.85;;;29.58;;
27365;SDS011;14837;57.148;-2.144;2023-04-01T19:10:45;28.02;;;10.82;;
27365;SDS011;14837;57.148;-2.144;2023-04-01T19:16:05;46.72;;;22.25;;
27365;SDS011;14837;57.148;-2.144;2023-04-01T19:18:52;27.88;;;9.25;;
27365;SDS011;14837;57.148;-2.144;2023-04-01T19:39:45;24.90;;;11.10;;
27365;SDS011;14837;57.148;-2.144;2023-04-01T19:42:21;20.17;;;10.88;;
27365;SDS011;14837;57.148;-2.144;2023-04-01T19:47:39;21.38;;;8.95;;
27365;SDS011;14837;57.148;-2.144;2023-04-01T19:52:39;29.65;;;9.73;;
27365;SDS011;14837;57.148;-2.144;2023-04-01T19:57:51;25.02;;;7.63;;
27365;SDS011;14837;57.148;-2.144;2023-04-01T20:07:53;32.35;;;17.50;;
27365;SDS011;14837;57.148;-2.144;2023-04-01T20:10:25;46.85;;;25.60;;
27365;SDS011;14837;57.148;-2.144;2023-04-01T20:13:41;54.03;;;31.20;;
27365;SDS011;14837;57.148;-2.144;2023-04-01T20:15:55;42.17;;;24.83;;
27365;SDS011;14837;57.148;-2.144;2023-04-01T20:19:06;39.75;;;18.92;;
27365;SDS011;14837;57.148;-2.144;2023-04-01T20:23:43;25.05;;;13.68;;
27365;SDS011;14837;57.148;-2.144;2023-04-01T20:26:12;24.83;;;12.27;;
27365;SDS011;14837;57.148;-2.144;2023-04-01T20:28:43;24.23;;;9.00;;
27365;SDS011;14837;57.148;-2.144;2023-04-01T20:36:58;22.25;;;9.43;;
27365;SDS011;14837;57.148;-2.144;2023-04-01T20:39:31;21.42;;;8.23;;
27365;SDS011;14837;57.148;-2.144;2023-04-01T20:45:11;20.13;;;6.28;;
27365;SDS011;14837;57.148;-2.144;2023-04-01T20:47:45;24.88;;;8.80;;
27365;SDS011;14837;57.148;-2.144;2023-04-01T20:50:24;21.63;;;6.95;;
27365;SDS011;14837;57.148;-2.144;2023-04-01T20:53:05;21.17;;;7.95;;
27365;SDS011;14837;57.148;-2.144;2023-04-01T21:09:02;22.70;;;6.80;;
27365;SDS011;14837;57.148;-2.144;2023-04-01T21:16:49;25.25;;;7.10;;
27365;SDS011;14837;57.148;-2.144;2023-04-01T21:27:36;85.85;;;55.88;;
27365;SDS011;14837;57.148;-2.144;2023-04-01T21:40:39;45.97;;;23.40;;
27365;SDS011;14837;57.148;-2.144;2023-04-01T21:51:15;30.77;;;10.40;;
27365;SDS011;14837;57.148;-2.144;2023-04-01T22:07:16;20.02;;;7.35;;
27365;SDS011;14837;57.148;-2.144;2023-04-01T22:12:35;26.42;;;8.43;;
27365;SDS011;14837;57.148;-2.144;2023-04-01T22:25:25;28.23;;;14.30;;
27365;SDS011;14837;57.148;-2.144;2023-04-01T22:28:01;30.30;;;10.63;;
27365;SDS011;14837;57.148;-2.144;2023-04-01T22:30:31;34.42;;;12.25;;
27365;SDS011;14837;57.148;-2.144;2023-04-01T22:33:05;25.00;;;9.77;;
27365;SDS011;14837;57.148;-2.144;2023-04-01T22:38:29;17.38;;;7.15;;
27365;SDS011;14837;57.148;-2.144;2023-04-01T22:43:46;17.23;;;7.68;;
27365;SDS011;14837;57.148;-2.144;2023-04-01T22:49:22;17.38;;;6.18;;
27365;SDS011;14837;57.148;-2.144;2023-04-01T22:54:52;19.38;;;5.68;;
27365;SDS011;14837;57.148;-2.144;2023-04-01T22:59:52;26.63;;;8.00;;
27365;SDS011;14837;57.148;-2.144;2023-04-01T23:02:23;23.45;;;6.53;;
27365;SDS011;14837;57.148;-2.144;2023-04-01T23:05:11;20.88;;;6.22;;
27365;SDS011;14837;57.148;-2.144;2023-04-01T23:08:19;26.40;;;7.18;;
27365;SDS011;14837;57.148;-2.144;2023-04-01T23:10:28;20.77;;;6.85;;
27365;SDS011;14837;57.148;-2.144;2023-04-01T23:12:58;21.83;;;6.45;;
27365;SDS011;14837;57.148;-2.144;2023-04-01T23:15:25;24.10;;;7.45;;
27365;SDS011;14837;57.148;-2.144;2023-04-01T23:20:49;20.73;;;5.47;;
27365;SDS011;14837;57.148;-2.144;2023-04-01T23:23:20;26.63;;;6.85;;
27365;SDS011;14837;57.148;-2.144;2023-04-01T23:26:06;26.38;;;5.90;;
27365;SDS011;14837;57.148;-2.144;2023-04-01T23:28:41;21.88;;;5.75;;
27365;SDS011;14837;57.148;-2.144;2023-04-01T23:31:25;22.52;;;6.47;;
27365;SDS011;14837;57.148;-2.144;2023-04-01T23:33:56;14.30;;;4.72;;
27365;SDS011;14837;57.148;-2.144;2023-04-01T23:36:22;17.98;;;6.03;;
27365;SDS011;14837;57.148;-2.144;2023-04-01T23:38:49;17.80;;;5.90;;
27365;SDS011;14837;57.148;-2.144;2023-04-01T23:41:17;22.38;;;7.15;;
27365;SDS011;14837;57.148;-2.144;2023-04-01T23:43:47;26.42;;;7.68;;
27365;SDS011;14837;57.148;-2.144;2023-04-01T23:46:16;22.30;;;5.90;;
27365;SDS011;14837;57.148;-2.144;2023-04-01T23:48:43;16.38;;;6.13;;
27365;SDS011;14837;57.148;-2.144;2023-04-01T23:51:17;22.40;;;6.10;;
27365;SDS011;14837;57.148;-2.144;2023-04-01T23:53:45;24.85;;;5.72;;
27365;SDS011;14837;57.148;-2.144;2023-04-01T23:56:12;22.90;;;5.70;;
27365;SDS011;14837;57.148;-2.144;2023-04-01T23:58:49;19.73;;;6.28;;
